Time;durP1;ratioP1;P1;durP2;ratioP2;P2;SDS_P1;SDS_P2;PMS_P1;PMS_P2;Temp;Humidity;BMP_temperature;BMP_pressure;BME280_temperature;BME280_humidity;BME280_pressure;Samples;Min_cycle;Max_cycle;Signal;HPM_P1;HPM_P2
2023/04/16 00:00:23;;;;;;;20.10;4.38;;;13.30;99.90;;;;;;4870142;29;20406;-92
2023/04/16 00:02:49;;;;;;;22.98;5.03;;;13.30;99.90;;;;;;4870196;29;20028;-89
2023/04/16 00:05:16;;;;;;;16.88;4.22;;;13.30;99.90;;;;;;4885579;29;20044;-85
2023/04/16 00:07:42;;;;;;;16.20;4.38;;;13.30;99.90;;;;;;4885777;29;20024;-80
2023/04/16 00:42:11;;;;;;;18.75;3.70;;;13.10;99.90;;;;;;5685143;23;20107;-92
2023/04/16 00:44:38;;;;;;;17.70;3.53;;;13.00;99.90;;;;;;4922747;29;20035;-94
2023/04/16 00:47:06;;;;;;;13.35;3.78;;;13.10;99.90;;;;;;4907758;29;20039;-91
2023/04/16 00:49:36;;;;;;;18.58;3.78;;;13.10;99.90;;;;;;4907288;29;20055;-94
2023/04/16 00:52:03;;;;;;;24.00;3.75;;;13.10;99.90;;;;;;4903784;29;20123;-94
2023/04/16 00:54:32;;;;;;;11.85;2.97;;;13.10;99.90;;;;;;4888170;29;20028;-90
2023/04/16 00:56:58;;;;;;;13.18;3.13;;;13.00;99.90;;;;;;4903406;29;20115;-92
2023/04/16 00:59:28;;;;;;;13.15;3.63;;;12.90;99.90;;;;;;4903409;29;20024;-91
2023/04/16 01:01:54;;;;;;;15.02;3.42;;;12.90;99.90;;;;;;4888196;29;20035;-90
2023/04/16 01:04:21;;;;;;;8.05;2.88;;;12.90;99.90;;;;;;4903448;29;20060;-90
2023/04/16 01:06:47;;;;;;;6.05;2.88;;;12.90;99.90;;;;;;4887573;29;20123;-91
2023/04/16 01:09:14;;;;;;;9.68;3.42;;;12.90;99.90;;;;;;4903529;29;20083;-91
2023/04/16 01:11:40;;;;;;;11.68;3.13;;;12.90;99.90;;;;;;4908280;29;20036;-92
2023/04/16 01:14:07;;;;;;;8.68;3.25;;;12.90;99.90;;;;;;4923122;29;20036;-92
2023/04/16 01:16:34;;;;;;;8.82;3.08;;;12.90;99.90;;;;;;4887655;29;20028;-91
2023/04/16 01:19:00;;;;;;;8.20;2.95;;;12.90;99.90;;;;;;4918864;29;20095;-91
2023/04/16 01:21:26;;;;;;;12.13;2.83;;;12.80;99.90;;;;;;4887621;29;20028;-93
2023/04/16 01:23:53;;;;;;;17.27;4.05;;;12.80;99.90;;;;;;4902995;29;20062;-93
2023/04/16 01:26:20;;;;;;;9.82;3.88;;;12.70;99.90;;;;;;4887449;29;20040;-90
2023/04/16 01:28:46;;;;;;;6.72;3.65;;;12.70;99.90;;;;;;4902975;29;20466;-93
2023/04/16 01:31:13;;;;;;;10.90;4.15;;;12.70;99.90;;;;;;4903157;29;20477;-94
2023/04/16 01:34:15;;;;;;;15.95;4.00;;;12.60;99.90;;;;;;4833422;29;20045;-91
2023/04/16 01:36:41;;;;;;;11.93;4.28;;;12.60;99.90;;;;;;4873281;29;20067;-90
2023/04/16 01:39:14;;;;;;;13.68;3.70;;;12.60;99.90;;;;;;4903869;29;20032;-90
2023/04/16 01:41:41;;;;;;;7.47;3.58;;;12.70;99.90;;;;;;4920703;29;20036;-92
2023/04/16 01:44:08;;;;;;;17.42;4.18;;;12.70;99.90;;;;;;4915944;29;20115;-91
2023/04/16 01:46:36;;;;;;;13.07;3.53;;;12.70;99.90;;;;;;4893653;29;20036;-91
2023/04/16 01:49:05;;;;;;;10.95;3.50;;;12.70;99.90;;;;;;4909438;29;20096;-91
2023/04/16 01:51:31;;;;;;;8.27;3.33;;;12.70;99.90;;;;;;4889327;29;20037;-92
2023/04/16 01:53:58;;;;;;;12.52;3.28;;;12.70;99.90;;;;;;4884548;29;20025;-92
2023/04/16 01:56:25;;;;;;;14.13;3.67;;;12.70;99.90;;;;;;4883736;29;20032;-90
2023/04/16 01:58:53;;;;;;;16.08;4.03;;;12.70;99.90;;;;;;4883693;29;20032;-92
2023/04/16 02:01:21;;;;;;;11.00;3.85;;;12.80;99.90;;;;;;4899503;29;20045;-93
2023/04/16 02:03:48;;;;;;;17.73;4.40;;;12.80;99.90;;;;;;4883418;29;20056;-91
2023/04/16 02:06:15;;;;;;;13.20;3.65;;;12.80;99.90;;;;;;4883457;29;20044;-92
2023/04/16 02:08:42;;;;;;;9.68;3.88;;;12.80;99.90;;;;;;4883370;29;20035;-91
2023/04/16 02:11:08;;;;;;;10.50;4.32;;;12.80;99.90;;;;;;4883544;29;20028;-90
2023/04/16 02:13:36;;;;;;;17.42;3.90;;;12.80;99.90;;;;;;4883699;29;20122;-92
2023/04/16 02:16:03;;;;;;;16.17;4.07;;;12.90;99.90;;;;;;4898982;29;20036;-93
2023/04/16 02:18:48;;;;;;;21.38;4.28;;;12.90;99.90;;;;;;4899611;29;20043;-91
2023/04/16 02:21:17;;;;;;;19.00;4.30;;;13.00;99.90;;;;;;4883555;29;20068;-90
2023/04/16 02:23:46;;;;;;;15.18;3.83;;;13.00;99.90;;;;;;4883222;29;20028;-91
2023/04/16 02:26:13;;;;;;;13.68;4.30;;;13.00;99.90;;;;;;4883481;29;20044;-91
2023/04/16 02:28:39;;;;;;;13.23;3.97;;;13.00;99.90;;;;;;4898813;29;20064;-92
2023/04/16 02:31:09;;;;;;;18.17;3.80;;;13.10;99.90;;;;;;4883459;29;20398;-91
2023/04/16 02:33:40;;;;;;;11.63;3.58;;;13.10;99.90;;;;;;4903793;29;20097;-91
2023/04/16 02:36:09;;;;;;;14.25;3.70;;;13.10;99.90;;;;;;4885623;29;20033;-92
2023/04/16 02:38:36;;;;;;;23.00;3.88;;;13.10;99.90;;;;;;4883157;29;20804;-90
2023/04/16 02:41:03;;;;;;;14.23;3.35;;;13.10;99.90;;;;;;4883049;29;20033;-93
2023/04/16 02:43:30;;;;;;;15.70;3.70;;;13.00;99.90;;;;;;4885682;29;20067;-92
2023/04/16 02:45:58;;;;;;;17.50;3.65;;;13.00;99.90;;;;;;4901492;29;20126;-90
2023/04/16 02:48:25;;;;;;;11.63;3.50;;;13.00;99.90;;;;;;4901694;29;20032;-92
2023/04/16 02:50:51;;;;;;;13.48;3.50;;;13.00;99.90;;;;;;4901563;29;20091;-89
2023/04/16 02:53:18;;;;;;;18.15;4.13;;;13.00;99.90;;;;;;4901796;29;20035;-91
2023/04/16 02:55:54;;;;;;;16.85;3.92;;;13.00;99.90;;;;;;4901740;29;20060;-92
2023/04/16 02:58:23;;;;;;;13.90;4.45;;;13.00;99.90;;;;;;4901525;29;20032;-91
2023/04/16 03:00:50;;;;;;;20.27;4.10;;;13.00;99.90;;;;;;4901376;29;20039;-92
2023/04/16 03:03:17;;;;;;;14.10;3.92;;;13.00;99.90;;;;;;4885777;29;20032;-90
2023/04/16 03:05:44;;;;;;;17.20;5.47;;;13.00;99.90;;;;;;4910345;29;20036;-89
2023/04/16 03:08:11;;;;;;;21.95;4.80;;;13.00;99.90;;;;;;4880374;29;20032;-90
2023/04/16 03:10:38;;;;;;;12.98;3.97;;;13.00;99.90;;;;;;4882902;29;20025;-92
2023/04/16 03:13:05;;;;;;;10.82;3.97;;;13.00;99.90;;;;;;4898284;29;20029;-91
2023/04/16 03:15:32;;;;;;;10.93;4.35;;;13.00;99.90;;;;;;4882824;29;20032;-93
2023/04/16 03:17:59;;;;;;;14.95;4.20;;;13.00;99.90;;;;;;4898226;29;20036;-92
2023/04/16 03:20:26;;;;;;;21.98;4.18;;;13.10;99.90;;;;;;4882566;29;20024;-91
2023/04/16 03:22:53;;;;;;;15.38;4.05;;;13.00;99.90;;;;;;4867017;29;20032;-91
2023/04/16 03:25:20;;;;;;;24.38;5.55;;;13.00;99.90;;;;;;4898073;29;20490;-91
2023/04/16 03:27:46;;;;;;;13.02;4.35;;;13.00;99.90;;;;;;4898129;29;20120;-91
2023/04/16 03:30:14;;;;;;;16.95;4.50;;;13.00;99.90;;;;;;4897837;29;20025;-90
2023/04/16 03:32:41;;;;;;;14.50;3.97;;;13.00;99.90;;;;;;4898138;29;20043;-93
2023/04/16 03:35:08;;;;;;;14.80;4.13;;;13.00;99.90;;;;;;4898042;29;20049;-90
2023/04/16 03:37:37;;;;;;;17.13;4.30;;;13.00;99.90;;;;;;4897744;29;20036;-92
2023/04/16 03:40:05;;;;;;;23.20;4.45;;;13.00;99.90;;;;;;4866907;29;20044;-91
2023/04/16 03:42:32;;;;;;;12.90;4.30;;;13.00;99.90;;;;;;4897446;29;20131;-91
2023/04/16 03:44:59;;;;;;;18.20;4.45;;;13.00;99.90;;;;;;4882301;29;20403;-92
2023/04/16 03:47:27;;;;;;;15.55;4.13;;;13.00;99.90;;;;;;4898902;29;20040;-91
2023/04/16 03:49:58;;;;;;;22.77;4.75;;;13.00;99.90;;;;;;4867690;29;20029;-92
2023/04/16 03:52:24;;;;;;;14.52;4.15;;;13.00;99.90;;;;;;4882907;29;20478;-89
2023/04/16 03:54:53;;;;;;;17.60;5.07;;;13.00;99.90;;;;;;4882945;29;20043;-89
2023/04/16 03:57:26;;;;;;;19.00;5.03;;;13.00;99.90;;;;;;4897739;29;20035;-90
2023/04/16 03:59:57;;;;;;;21.83;4.50;;;13.00;99.90;;;;;;4898290;29;20039;-92
2023/04/16 04:02:26;;;;;;;17.55;3.95;;;13.00;99.90;;;;;;4876498;29;20029;-91
2023/04/16 04:04:53;;;;;;;18.73;4.75;;;13.00;99.90;;;;;;4892725;29;20037;-91
2023/04/16 04:07:20;;;;;;;11.73;4.32;;;13.00;99.90;;;;;;4905607;29;20036;-93
2023/04/16 04:09:46;;;;;;;17.23;4.32;;;13.00;99.90;;;;;;4883053;29;20443;-93
2023/04/16 04:12:15;;;;;;;22.40;4.10;;;13.00;99.90;;;;;;4882491;29;20040;-92
2023/04/16 04:14:43;;;;;;;14.25;3.90;;;13.00;99.90;;;;;;4900991;29;20084;-92
2023/04/16 04:17:10;;;;;;;20.52;4.90;;;13.00;99.90;;;;;;4901063;29;20037;-93
2023/04/16 04:19:37;;;;;;;17.90;4.60;;;13.00;99.90;;;;;;4900953;29;20111;-93
2023/04/16 04:22:03;;;;;;;23.15;5.05;;;13.00;99.90;;;;;;4901306;29;20516;-92
2023/04/16 04:24:30;;;;;;;15.20;4.55;;;13.10;99.90;;;;;;4885620;29;20059;-92
2023/04/16 04:26:58;;;;;;;17.67;4.75;;;13.00;99.90;;;;;;4904891;29;20036;-92
2023/04/16 04:29:24;;;;;;;26.80;5.25;;;13.00;99.90;;;;;;4905679;29;20025;-94
2023/04/16 04:31:52;;;;;;;16.02;4.45;;;13.10;99.90;;;;;;4900862;29;20029;-91
2023/04/16 04:34:18;;;;;;;16.98;4.53;;;13.10;99.90;;;;;;4901246;29;20029;-89
2023/04/16 04:36:45;;;;;;;21.42;5.55;;;13.10;99.90;;;;;;4869790;29;20439;-92
2023/04/16 04:39:13;;;;;;;16.02;4.55;;;13.10;99.90;;;;;;4885366;29;20031;-92
2023/04/16 04:41:43;;;;;;;16.98;4.80;;;13.20;99.90;;;;;;4869953;29;20064;-91
2023/04/16 04:44:12;;;;;;;21.80;4.63;;;13.10;99.90;;;;;;4881751;29;20049;-94
2023/04/16 04:46:39;;;;;;;14.95;4.30;;;13.20;99.90;;;;;;4866375;29;20041;-90
2023/04/16 04:49:06;;;;;;;10.63;4.57;;;13.20;99.90;;;;;;4866262;29;20070;-92
2023/04/16 04:51:33;;;;;;;11.77;3.97;;;13.30;99.90;;;;;;4866179;29;20033;-91
2023/04/16 04:54:00;;;;;;;17.17;4.88;;;13.20;99.90;;;;;;4866625;29;20142;-90
2023/04/16 04:56:27;;;;;;;19.40;4.22;;;13.30;99.90;;;;;;4866617;29;20037;-92
2023/04/16 04:58:54;;;;;;;13.15;4.18;;;13.30;99.90;;;;;;4866251;29;20085;-92
2023/04/16 05:01:22;;;;;;;18.95;4.68;;;13.30;99.90;;;;;;4866196;29;20048;-90
2023/04/16 05:03:48;;;;;;;18.27;4.28;;;13.40;99.90;;;;;;4865926;29;20112;-92
2023/04/16 05:06:15;;;;;;;19.30;5.65;;;13.40;99.90;;;;;;4866178;29;20463;-92
2023/04/16 05:08:45;;;;;;;11.88;4.30;;;13.50;99.90;;;;;;4877772;29;20024;-91
2023/04/16 05:11:15;;;;;;;14.75;4.20;;;13.50;99.90;;;;;;4900411;29;20486;-91
2023/04/16 05:13:41;;;;;;;12.65;4.40;;;13.50;99.90;;;;;;4915854;29;20040;-91
2023/04/16 05:16:08;;;;;;;23.20;5.10;;;13.60;99.90;;;;;;4900137;29;20025;-91
2023/04/16 05:18:34;;;;;;;12.80;4.40;;;13.70;99.90;;;;;;4899777;29;20131;-92
2023/04/16 05:21:01;;;;;;;17.38;4.32;;;13.70;99.90;;;;;;4900249;29;20405;-92
2023/04/16 05:23:28;;;;;;;14.20;4.30;;;13.80;99.90;;;;;;4915931;29;20443;-92
2023/04/16 05:25:55;;;;;;;13.80;3.88;;;13.80;99.90;;;;;;4900076;29;20037;-92
2023/04/16 05:28:22;;;;;;;21.40;4.60;;;13.80;99.90;;;;;;4900252;29;20036;-92
2023/04/16 05:30:48;;;;;;;14.77;4.72;;;13.90;99.90;;;;;;4900210;29;20032;-92
2023/04/16 05:33:15;;;;;;;16.60;5.22;;;13.90;99.90;;;;;;4915654;29;20032;-91
2023/04/16 05:35:41;;;;;;;18.33;4.60;;;13.80;99.90;;;;;;4899911;29;20049;-91
2023/04/16 05:38:09;;;;;;;16.95;4.15;;;13.80;99.90;;;;;;4915829;29;20037;-91
2023/04/16 05:40:36;;;;;;;15.57;3.83;;;13.80;99.90;;;;;;4899837;29;20024;-93
2023/04/16 05:43:03;;;;;;;27.17;5.20;;;13.80;99.90;;;;;;4918403;29;20059;-91
2023/04/16 05:45:32;;;;;;;12.20;4.47;;;13.80;99.90;;;;;;4888479;29;20391;-90
2023/04/16 05:47:59;;;;;;;23.30;4.95;;;13.80;99.90;;;;;;4903148;29;20035;-89
2023/04/16 05:50:25;;;;;;;10.10;4.13;;;13.80;99.90;;;;;;4911804;29;20032;-91
2023/04/16 05:52:52;;;;;;;14.23;4.40;;;13.80;99.90;;;;;;4903460;29;20123;-90
2023/04/16 05:55:18;;;;;;;24.60;4.75;;;13.80;99.90;;;;;;4902443;29;20119;-90
2023/04/16 05:57:47;;;;;;;17.98;4.32;;;13.80;99.90;;;;;;4902536;29;20032;-91
2023/04/16 06:00:13;;;;;;;17.70;6.47;;;13.80;99.90;;;;;;4902676;29;20562;-91
2023/04/16 06:02:39;;;;;;;17.25;5.53;;;13.80;99.90;;;;;;4902776;29;20032;-90
2023/04/16 06:05:07;;;;;;;20.67;4.47;;;13.90;99.90;;;;;;4887141;29;20043;-92
2023/04/16 06:07:33;;;;;;;14.80;4.60;;;13.90;99.90;;;;;;4903188;29;20036;-91
2023/04/16 06:10:00;;;;;;;16.17;4.75;;;13.90;99.90;;;;;;4888185;29;20021;-92
2023/04/16 06:12:26;;;;;;;11.70;4.35;;;13.90;99.90;;;;;;4904855;29;20040;-92
2023/04/16 06:14:53;;;;;;;17.27;4.40;;;13.90;99.90;;;;;;4903316;29;20028;-92
2023/04/16 12:02:59;;;;;;;15.77;14.48;;;17.40;99.90;;;;;;5490796;23;20090;-92
2023/04/16 12:05:39;;;;;;;15.50;14.43;;;17.10;99.90;;;;;;4907845;29;20036;-92
2023/04/16 12:08:29;;;;;;;15.98;14.70;;;17.10;99.90;;;;;;4907899;29;20032;-92
2023/04/16 12:10:58;;;;;;;16.33;14.80;;;16.80;99.90;;;;;;4908243;29;20107;-92
2023/04/16 12:13:27;;;;;;;15.40;14.40;;;16.20;99.90;;;;;;4904968;29;20733;-92
2023/04/16 12:15:57;;;;;;;15.65;14.30;;;16.00;99.90;;;;;;4891236;29;20024;-91
2023/04/16 12:18:27;;;;;;;15.70;14.40;;;15.70;99.90;;;;;;4889954;29;20040;-92
2023/04/16 12:20:54;;;;;;;15.48;14.18;;;15.20;99.90;;;;;;4892652;29;20032;-91
2023/04/16 12:23:34;;;;;;;15.90;14.18;;;15.00;99.90;;;;;;4892287;29;20036;-91
2023/04/16 12:26:28;;;;;;;12.70;11.50;;;14.70;99.90;;;;;;4897833;29;20048;-90
2023/04/16 12:29:14;;;;;;;15.13;13.68;;;14.50;99.90;;;;;;4907453;29;20133;-91
2023/04/16 12:31:46;;;;;;;18.58;12.13;;;14.20;99.90;;;;;;4913092;24;20047;-91
2023/04/16 12:34:29;;;;;;;22.90;11.27;;;14.00;99.90;;;;;;4891980;29;20056;-92
2023/04/16 12:37:11;;;;;;;12.73;8.38;;;13.90;99.90;;;;;;4892869;29;20378;-92
2023/04/16 12:39:50;;;;;;;16.80;7.30;;;13.80;99.90;;;;;;4893768;29;20378;-91
2023/04/16 12:42:20;;;;;;;12.93;6.28;;;13.80;99.90;;;;;;4889482;29;20032;-92
2023/04/16 12:44:47;;;;;;;12.65;6.00;;;14.00;99.90;;;;;;4888447;29;20072;-92
2023/04/16 12:47:13;;;;;;;15.05;6.35;;;14.10;99.90;;;;;;4888275;29;20047;-91
2023/04/16 12:49:39;;;;;;;14.23;6.18;;;14.20;99.90;;;;;;4888346;29;20028;-91
2023/04/16 12:52:06;;;;;;;13.50;6.15;;;14.50;99.90;;;;;;4888531;29;20062;-93
2023/04/16 12:54:33;;;;;;;16.58;6.45;;;14.70;99.90;;;;;;4888285;29;20038;-92
2023/04/16 12:56:59;;;;;;;13.98;7.85;;;14.90;99.90;;;;;;4887790;29;20053;-92
2023/04/16 12:59:26;;;;;;;13.10;7.70;;;15.20;99.90;;;;;;4889224;29;20489;-92
2023/04/16 13:01:52;;;;;;;22.00;8.20;;;15.40;99.90;;;;;;4887751;29;20109;-90
2023/04/16 13:04:19;;;;;;;23.35;10.75;;;15.20;99.90;;;;;;4888620;29;20115;-92
2023/04/16 13:06:46;;;;;;;12.80;9.68;;;14.80;99.90;;;;;;4888625;29;20051;-92
2023/04/16 13:09:13;;;;;;;19.48;10.10;;;14.50;99.90;;;;;;4891031;29;20096;-92
2023/04/16 13:11:40;;;;;;;15.25;11.43;;;14.40;99.90;;;;;;4888188;29;20100;-92
2023/04/16 13:14:06;;;;;;;15.40;9.98;;;14.40;99.90;;;;;;4889460;29;20118;-92
2023/04/16 13:16:32;;;;;;;13.55;8.60;;;14.50;99.90;;;;;;4888030;29;20024;-92
2023/04/16 13:18:59;;;;;;;18.02;8.52;;;14.50;99.90;;;;;;4887268;29;20039;-92
2023/04/16 13:21:26;;;;;;;14.57;8.13;;;14.50;99.90;;;;;;4887300;29;20032;-91
2023/04/16 13:23:52;;;;;;;13.40;9.13;;;14.60;99.90;;;;;;4887700;29;20028;-92
2023/04/16 13:26:19;;;;;;;20.92;9.52;;;14.70;99.90;;;;;;4888286;29;20040;-93
2023/04/16 13:28:46;;;;;;;16.52;9.75;;;14.70;99.90;;;;;;4888918;29;20071;-93
2023/04/16 13:31:14;;;;;;;18.02;8.82;;;14.80;99.90;;;;;;4884016;29;20514;-91
2023/04/16 13:33:41;;;;;;;14.70;8.40;;;14.80;99.90;;;;;;4888527;29;20036;-92
2023/04/16 13:36:08;;;;;;;10.20;7.75;;;14.70;99.90;;;;;;4905933;29;20028;-92
2023/04/16 13:38:34;;;;;;;15.73;8.40;;;14.80;99.90;;;;;;4888688;29;20024;-93
2023/04/16 13:41:01;;;;;;;12.75;7.78;;;14.90;99.90;;;;;;4888170;29;20028;-92
2023/04/16 13:43:27;;;;;;;14.73;7.18;;;15.00;99.90;;;;;;4892088;29;20032;-92
2023/04/16 13:45:54;;;;;;;15.90;7.60;;;15.00;99.90;;;;;;4890978;29;20051;-92
2023/04/16 13:48:20;;;;;;;17.20;7.60;;;14.90;99.90;;;;;;4891283;29;20052;-92
2023/04/16 13:50:46;;;;;;;9.70;7.10;;;14.90;99.90;;;;;;4887943;29;20133;-93
2023/04/16 13:53:13;;;;;;;12.02;7.00;;;14.70;99.90;;;;;;4887223;29;20020;-92
2023/04/16 13:55:40;;;;;;;20.00;6.72;;;14.60;99.90;;;;;;4887529;29;20052;-92
2023/04/16 13:58:06;;;;;;;8.75;6.60;;;14.60;99.90;;;;;;4889657;29;20063;-93
